sensor_id;sensor_type;location;lat;lon;timestamp;pressure;altitude;pressure_sealevel;temperature;humidity
50302;BME280;36550;50.472;19.744;2023-09-12T00:01:27;97895.09;;;16.43;81.19
50302;BME280;36550;50.472;19.744;2023-09-12T00:04:12;97893.43;;;16.37;81.07
50302;BME280;36550;50.472;19.744;2023-09-12T00:06:56;97894.07;;;16.35;81.25
50302;BME280;36550;50.472;19.744;2023-09-12T00:09:40;97893.77;;;16.36;81.36
50302;BME280;36550;50.472;19.744;2023-09-12T00:12:24;97893.59;;;16.36;81.37
50302;BME280;36550;50.472;19.744;2023-09-12T00:15:08;97887.08;;;16.36;81.36
50302;BME280;36550;50.472;19.744;2023-09-12T00:17:53;97885.29;;;16.36;81.37
50302;BME280;36550;50.472;19.744;2023-09-12T00:20:37;97885.83;;;16.36;81.42
50302;BME280;36550;50.472;19.744;2023-09-12T00:23:21;97885.02;;;16.35;81.48
50302;BME280;36550;50.472;19.744;2023-09-12T00:26:07;97884.71;;;16.34;81.46
50302;BME280;36550;50.472;19.744;2023-09-12T00:28:51;97885.07;;;16.35;81.46
50302;BME280;36550;50.472;19.744;2023-09-12T00:31:35;97882.69;;;16.35;81.59
50302;BME280;36550;50.472;19.744;2023-09-12T00:34:19;97882.52;;;16.37;81.65
50302;BME280;36550;50.472;19.744;2023-09-12T00:37:04;97883.52;;;16.38;81.71
50302;BME280;36550;50.472;19.744;2023-09-12T00:39:48;97883.27;;;16.38;81.79
50302;BME280;36550;50.472;19.744;2023-09-12T00:42:32;97879.87;;;16.38;81.89
50302;BME280;36550;50.472;19.744;2023-09-12T00:45:16;97883.89;;;16.38;81.85
50302;BME280;36550;50.472;19.744;2023-09-12T00:48:01;97882.91;;;16.34;81.86
50302;BME280;36550;50.472;19.744;2023-09-12T00:50:46;97883.02;;;16.33;81.83
50302;BME280;36550;50.472;19.744;2023-09-12T00:53:31;97882.14;;;16.31;81.65
50302;BME280;36550;50.472;19.744;2023-09-12T00:56:15;97882.52;;;16.29;81.63
50302;BME280;36550;50.472;19.744;2023-09-12T00:59:00;97881.15;;;16.28;81.67
50302;BME280;36550;50.472;19.744;2023-09-12T01:01:45;97881.15;;;16.27;81.65
50302;BME280;36550;50.472;19.744;2023-09-12T01:04:31;97879.64;;;16.23;81.63
50302;BME280;36550;50.472;19.744;2023-09-12T01:07:16;97881.67;;;16.20;81.75
50302;BME280;36550;50.472;19.744;2023-09-12T01:10:00;97882.73;;;16.20;81.67
50302;BME280;36550;50.472;19.744;2023-09-12T01:12:45;97882.68;;;16.19;81.73
50302;BME280;36550;50.472;19.744;2023-09-12T01:15:29;97882.69;;;16.18;81.88
50302;BME280;36550;50.472;19.744;2023-09-12T01:18:13;97881.58;;;16.18;82.07
50302;BME280;36550;50.472;19.744;2023-09-12T01:24:25;97882.52;;;16.19;82.31
50302;BME280;36550;50.472;19.744;2023-09-12T01:27:27;97883.63;;;16.19;82.26
50302;BME280;36550;50.472;19.744;2023-09-12T01:30:12;97882.73;;;16.20;82.17
50302;BME280;36550;50.472;19.744;2023-09-12T01:33:01;97884.27;;;16.21;82.30
50302;BME280;36550;50.472;19.744;2023-09-12T01:35:45;97883.02;;;16.23;82.40
50302;BME280;36550;50.472;19.744;2023-09-12T01:38:30;97881.61;;;16.22;82.48
50302;BME280;36550;50.472;19.744;2023-09-12T01:41:14;97884.48;;;16.20;82.42
50302;BME280;36550;50.472;19.744;2023-09-12T01:43:59;97882.16;;;16.17;82.54
50302;BME280;36550;50.472;19.744;2023-09-12T01:46:44;97884.46;;;16.13;82.31
50302;BME280;36550;50.472;19.744;2023-09-12T01:49:29;97884.64;;;16.09;82.14
50302;BME280;36550;50.472;19.744;2023-09-12T01:52:14;97889.85;;;16.04;82.00
50302;BME280;36550;50.472;19.744;2023-09-12T01:54:59;97884.69;;;16.02;82.05
50302;BME280;36550;50.472;19.744;2023-09-12T01:57:43;97880.46;;;16.00;82.08
50302;BME280;36550;50.472;19.744;2023-09-12T02:00:29;97880.47;;;15.97;82.47
50302;BME280;36550;50.472;19.744;2023-09-12T02:03:13;97885.08;;;15.96;82.50
50302;BME280;36550;50.472;19.744;2023-09-12T02:05:57;97885.36;;;15.95;82.51
50302;BME280;36550;50.472;19.744;2023-09-12T02:08:41;97883.08;;;15.95;82.38
50302;BME280;36550;50.472;19.744;2023-09-12T02:11:26;97884.18;;;15.94;82.38
50302;BME280;36550;50.472;19.744;2023-09-12T02:14:10;97880.59;;;15.94;82.44
50302;BME280;36550;50.472;19.744;2023-09-12T02:16:54;97881.34;;;15.91;82.43
50302;BME280;36550;50.472;19.744;2023-09-12T02:19:37;97884.79;;;15.89;82.53
50302;BME280;36550;50.472;19.744;2023-09-12T02:22:21;97881.73;;;15.86;82.56
50302;BME280;36550;50.472;19.744;2023-09-12T02:25:06;97883.12;;;15.84;82.36
50302;BME280;36550;50.472;19.744;2023-09-12T02:27:50;97879.37;;;15.83;82.29
50302;BME280;36550;50.472;19.744;2023-09-12T02:30:33;97879.33;;;15.81;82.22
50302;BME280;36550;50.472;19.744;2023-09-12T02:33:18;97880.18;;;15.79;82.19
50302;BME280;36550;50.472;19.744;2023-09-12T02:36:02;97881.77;;;15.78;82.28
50302;BME280;36550;50.472;19.744;2023-09-12T02:38:46;97883.52;;;15.76;82.33
50302;BME280;36550;50.472;19.744;2023-09-12T02:41:30;97882.73;;;15.75;82.59
50302;BME280;36550;50.472;19.744;2023-09-12T02:44:14;97881.08;;;15.72;82.53
50302;BME280;36550;50.472;19.744;2023-09-12T02:46:58;97880.18;;;15.71;82.64
50302;BME280;36550;50.472;19.744;2023-09-12T02:49:42;97881.55;;;15.73;82.87
50302;BME280;36550;50.472;19.744;2023-09-12T02:52:26;97882.52;;;15.76;83.05
50302;BME280;36550;50.472;19.744;2023-09-12T02:55:10;97886.64;;;15.78;83.02
50302;BME280;36550;50.472;19.744;2023-09-12T02:57:55;97889.06;;;15.81;83.17
50302;BME280;36550;50.472;19.744;2023-09-12T03:00:39;97885.19;;;15.82;83.10
50302;BME280;36550;50.472;19.744;2023-09-12T03:03:24;97892.02;;;15.80;82.91
50302;BME280;36550;50.472;19.744;2023-09-12T03:06:09;97890.35;;;15.78;83.01
50302;BME280;36550;50.472;19.744;2023-09-12T03:08:53;97892.09;;;15.73;82.87
50302;BME280;36550;50.472;19.744;2023-09-12T03:11:36;97888.82;;;15.70;82.93
50302;BME280;36550;50.472;19.744;2023-09-12T03:14:21;97888.23;;;15.68;82.90
50302;BME280;36550;50.472;19.744;2023-09-12T03:17:05;97887.17;;;15.66;82.86
50302;BME280;36550;50.472;19.744;2023-09-12T03:19:50;97889.67;;;15.66;82.90
50302;BME280;36550;50.472;19.744;2023-09-12T03:22:34;97885.70;;;15.66;83.07
50302;BME280;36550;50.472;19.744;2023-09-12T03:25:21;97886.14;;;15.63;83.08
50302;BME280;36550;50.472;19.744;2023-09-12T03:28:06;97885.77;;;15.61;83.30
50302;BME280;36550;50.472;19.744;2023-09-12T03:30:51;97886.41;;;15.59;83.41
50302;BME280;36550;50.472;19.744;2023-09-12T03:33:35;97889.02;;;15.60;83.46
50302;BME280;36550;50.472;19.744;2023-09-12T03:36:19;97887.20;;;15.60;83.45
50302;BME280;36550;50.472;19.744;2023-09-12T03:39:03;97889.42;;;15.59;83.35
50302;BME280;36550;50.472;19.744;2023-09-12T03:41:52;97891.44;;;15.59;83.49
50302;BME280;36550;50.472;19.744;2023-09-12T03:44:36;97893.56;;;15.57;83.42
50302;BME280;36550;50.472;19.744;2023-09-12T03:47:20;97891.92;;;15.54;83.51
50302;BME280;36550;50.472;19.744;2023-09-12T03:50:04;97890.23;;;15.53;83.42
50302;BME280;36550;50.472;19.744;2023-09-12T03:52:48;97887.60;;;15.51;83.60
50302;BME280;36550;50.472;19.744;2023-09-12T03:55:33;97891.09;;;15.52;83.41
50302;BME280;36550;50.472;19.744;2023-09-12T03:58:16;97890.66;;;15.53;83.48
50302;BME280;36550;50.472;19.744;2023-09-12T04:01:01;97893.27;;;15.53;83.32
50302;BME280;36550;50.472;19.744;2023-09-12T04:03:45;97889.86;;;15.51;83.17
50302;BME280;36550;50.472;19.744;2023-09-12T04:06:31;97892.95;;;15.47;83.19
50302;BME280;36550;50.472;19.744;2023-09-12T04:09:15;97886.98;;;15.43;83.34
50302;BME280;36550;50.472;19.744;2023-09-12T04:11:59;97888.64;;;15.41;83.33
50302;BME280;36550;50.472;19.744;2023-09-12T04:14:43;97884.94;;;15.38;83.31
50302;BME280;36550;50.472;19.744;2023-09-12T04:17:27;97884.79;;;15.37;83.19
50302;BME280;36550;50.472;19.744;2023-09-12T04:20:11;97885.52;;;15.36;83.27
50302;BME280;36550;50.472;19.744;2023-09-12T04:23:01;97889.64;;;15.38;83.43
50302;BME280;36550;50.472;19.744;2023-09-12T04:25:46;97890.33;;;15.38;83.41
50302;BME280;36550;50.472;19.744;2023-09-12T04:28:29;97892.55;;;15.38;83.46
50302;BME280;36550;50.472;19.744;2023-09-12T04:31:14;97895.83;;;15.38;83.58
50302;BME280;36550;50.472;19.744;2023-09-12T04:33:57;97895.48;;;15.37;83.58
50302;BME280;36550;50.472;19.744;2023-09-12T04:36:41;97893.66;;;15.38;83.42
50302;BME280;36550;50.472;19.744;2023-09-12T04:39:25;97893.13;;;15.38;83.39
50302;BME280;36550;50.472;19.744;2023-09-12T04:42:10;97894.89;;;15.39;83.42
50302;BME280;36550;50.472;19.744;2023-09-12T04:44:53;97891.65;;;15.41;83.60
50302;BME280;36550;50.472;19.744;2023-09-12T04:47:37;97894.02;;;15.41;83.75
50302;BME280;36550;50.472;19.744;2023-09-12T04:50:21;97894.29;;;15.43;83.81
50302;BME280;36550;50.472;19.744;2023-09-12T04:53:05;97891.16;;;15.46;84.01
50302;BME280;36550;50.472;19.744;2023-09-12T04:55:52;97894.27;;;15.51;83.98
50302;BME280;36550;50.472;19.744;2023-09-12T04:58:35;97894.79;;;15.55;84.24
50302;BME280;36550;50.472;19.744;2023-09-12T05:01:19;97896.36;;;15.60;84.32
50302;BME280;36550;50.472;19.744;2023-09-12T05:04:03;97895.08;;;15.66;84.52
50302;BME280;36550;50.472;19.744;2023-09-12T05:06:47;97898.59;;;15.72;84.63
50302;BME280;36550;50.472;19.744;2023-09-12T05:09:33;97899.57;;;15.75;84.61
50302;BME280;36550;50.472;19.744;2023-09-12T05:12:16;97900.13;;;15.79;84.82
50302;BME280;36550;50.472;19.744;2023-09-12T05:15:00;97899.90;;;15.83;84.90
50302;BME280;36550;50.472;19.744;2023-09-12T05:17:44;97900.30;;;15.89;85.00
50302;BME280;36550;50.472;19.744;2023-09-12T05:20:28;97902.89;;;15.94;85.06
50302;BME280;36550;50.472;19.744;2023-09-12T05:23:12;97902.48;;;15.98;85.09
50302;BME280;36550;50.472;19.744;2023-09-12T05:25:56;97900.88;;;16.03;85.00
50302;BME280;36550;50.472;19.744;2023-09-12T05:28:40;97903.02;;;16.09;85.18
50302;BME280;36550;50.472;19.744;2023-09-12T05:31:24;97902.63;;;16.14;85.24
50302;BME280;36550;50.472;19.744;2023-09-12T05:34:08;97905.83;;;16.19;85.34
50302;BME280;36550;50.472;19.744;2023-09-12T05:36:52;97904.09;;;16.25;85.59
50302;BME280;36550;50.472;19.744;2023-09-12T05:39:36;97905.76;;;16.31;85.96
50302;BME280;36550;50.472;19.744;2023-09-12T05:42:20;97908.09;;;16.39;86.13
50302;BME280;36550;50.472;19.744;2023-09-12T05:45:06;97909.63;;;16.47;86.12
50302;BME280;36550;50.472;19.744;2023-09-12T05:47:50;97908.62;;;16.56;86.25
50302;BME280;36550;50.472;19.744;2023-09-12T05:50:36;97908.94;;;16.64;86.24
50302;BME280;36550;50.472;19.744;2023-09-12T05:53:20;97912.54;;;16.71;86.35
50302;BME280;36550;50.472;19.744;2023-09-12T05:56:04;97912.23;;;16.77;86.50
50302;BME280;36550;50.472;19.744;2023-09-12T05:58:48;97915.87;;;16.84;86.47
50302;BME280;36550;50.472;19.744;2023-09-12T06:01:34;97911.89;;;16.91;86.71
50302;BME280;36550;50.472;19.744;2023-09-12T06:04:18;97904.71;;;16.99;86.66
50302;BME280;36550;50.472;19.744;2023-09-12T06:07:03;97908.77;;;17.09;86.78
50302;BME280;36550;50.472;19.744;2023-09-12T06:09:47;97910.21;;;17.19;86.73
50302;BME280;36550;50.472;19.744;2023-09-12T06:12:31;97908.86;;;17.28;86.91
50302;BME280;36550;50.472;19.744;2023-09-12T06:15:16;97908.55;;;17.38;86.90
50302;BME280;36550;50.472;19.744;2023-09-12T06:18:00;97914.66;;;17.47;87.15
50302;BME280;36550;50.472;19.744;2023-09-12T06:20:44;97920.48;;;17.54;87.47
50302;BME280;36550;50.472;19.744;2023-09-12T06:23:29;97922.19;;;17.63;87.30
50302;BME280;36550;50.472;19.744;2023-09-12T06:26:14;97919.91;;;17.72;87.39
50302;BME280;36550;50.472;19.744;2023-09-12T06:28:58;97917.73;;;17.82;87.31
50302;BME280;36550;50.472;19.744;2023-09-12T06:31:43;97924.20;;;17.93;87.35
50302;BME280;36550;50.472;19.744;2023-09-12T06:34:27;97920.98;;;18.05;87.53
50302;BME280;36550;50.472;19.744;2023-09-12T06:37:11;97923.81;;;18.17;87.84
50302;BME280;36550;50.472;19.744;2023-09-12T06:39:55;97925.05;;;18.28;88.08
50302;BME280;36550;50.472;19.744;2023-09-12T06:42:39;97931.80;;;18.40;88.66
50302;BME280;36550;50.472;19.744;2023-09-12T06:45:23;97926.52;;;18.51;88.60
50302;BME280;36550;50.472;19.744;2023-09-12T06:48:07;97924.39;;;18.64;88.76
50302;BME280;36550;50.472;19.744;2023-09-12T06:50:53;97923.55;;;18.76;88.63
50302;BME280;36550;50.472;19.744;2023-09-12T06:53:37;97919.80;;;18.86;88.50
50302;BME280;36550;50.472;19.744;2023-09-12T06:56:21;97921.70;;;18.98;88.58
50302;BME280;36550;50.472;19.744;2023-09-12T06:59:05;97926.89;;;19.09;88.68
50302;BME280;36550;50.472;19.744;2023-09-12T07:01:49;97929.45;;;19.21;88.60
50302;BME280;36550;50.472;19.744;2023-09-12T07:04:33;97931.14;;;19.31;88.51
50302;BME280;36550;50.472;19.744;2023-09-12T07:07:18;97932.97;;;19.39;88.33
50302;BME280;36550;50.472;19.744;2023-09-12T07:10:03;97933.05;;;19.47;88.23
50302;BME280;36550;50.472;19.744;2023-09-12T07:12:48;97934.24;;;19.57;88.35
50302;BME280;36550;50.472;19.744;2023-09-12T07:15:31;97936.58;;;19.69;88.20
50302;BME280;36550;50.472;19.744;2023-09-12T07:18:15;97940.22;;;19.80;88.13
50302;BME280;36550;50.472;19.744;2023-09-12T07:21:01;97937.39;;;19.92;87.94
50302;BME280;36550;50.472;19.744;2023-09-12T07:23:47;97935.84;;;20.02;87.95
50302;BME280;36550;50.472;19.744;2023-09-12T07:26:31;97938.88;;;20.13;88.01
50302;BME280;36550;50.472;19.744;2023-09-12T07:29:15;97940.13;;;20.24;88.07
50302;BME280;36550;50.472;19.744;2023-09-12T07:31:59;97943.71;;;20.36;88.09
50302;BME280;36550;50.472;19.744;2023-09-12T07:34:44;97940.56;;;20.48;87.77
50302;BME280;36550;50.472;19.744;2023-09-12T07:37:32;97942.11;;;20.62;87.53
50302;BME280;36550;50.472;19.744;2023-09-12T07:40:16;97942.95;;;20.77;87.44
50302;BME280;36550;50.472;19.744;2023-09-12T07:43:00;97940.58;;;20.91;87.17
50302;BME280;36550;50.472;19.744;2023-09-12T07:45:44;97940.98;;;21.04;86.89
50302;BME280;36550;50.472;19.744;2023-09-12T07:48:28;97938.18;;;21.13;85.91
50302;BME280;36550;50.472;19.744;2023-09-12T07:51:14;97937.98;;;21.23;85.33
50302;BME280;36550;50.472;19.744;2023-09-12T07:53:58;97936.17;;;21.31;84.55
50302;BME280;36550;50.472;19.744;2023-09-12T07:56:43;97936.88;;;21.40;83.96
50302;BME280;36550;50.472;19.744;2023-09-12T07:59:27;97936.55;;;21.47;83.27
50302;BME280;36550;50.472;19.744;2023-09-12T08:02:11;97935.71;;;21.53;82.55
50302;BME280;36550;50.472;19.744;2023-09-12T08:04:56;97935.20;;;21.60;81.66
50302;BME280;36550;50.472;19.744;2023-09-12T08:07:40;97934.95;;;21.67;81.38
50302;BME280;36550;50.472;19.744;2023-09-12T08:10:24;97936.73;;;21.74;80.66
50302;BME280;36550;50.472;19.744;2023-09-12T08:13:08;97939.71;;;21.81;80.37
50302;BME280;36550;50.472;19.744;2023-09-12T08:15:52;97940.48;;;21.86;79.84
50302;BME280;36550;50.472;19.744;2023-09-12T08:18:35;97938.36;;;21.91;79.37
50302;BME280;36550;50.472;19.744;2023-09-12T08:21:19;97938.40;;;21.95;78.88
50302;BME280;36550;50.472;19.744;2023-09-12T08:24:03;97938.69;;;22.00;78.42
50302;BME280;36550;50.472;19.744;2023-09-12T08:26:48;97938.39;;;22.05;77.85
50302;BME280;36550;50.472;19.744;2023-09-12T08:29:33;97939.17;;;22.09;77.45
50302;BME280;36550;50.472;19.744;2023-09-12T08:32:17;97940.43;;;22.16;77.10
50302;BME280;36550;50.472;19.744;2023-09-12T08:35:06;97937.50;;;22.19;76.85
50302;BME280;36550;50.472;19.744;2023-09-12T08:37:50;97938.02;;;22.24;76.28
50302;BME280;36550;50.472;19.744;2023-09-12T08:40:34;97934.27;;;22.28;75.52
50302;BME280;36550;50.472;19.744;2023-09-12T08:43:20;97932.43;;;22.33;75.38
50302;BME280;36550;50.472;19.744;2023-09-12T08:46:04;97934.37;;;22.37;75.01
50302;BME280;36550;50.472;19.744;2023-09-12T08:48:49;97934.01;;;22.42;74.65
50302;BME280;36550;50.472;19.744;2023-09-12T08:51:38;97937.85;;;22.46;74.30
50302;BME280;36550;50.472;19.744;2023-09-12T08:54:23;97937.71;;;22.51;73.72
50302;BME280;36550;50.472;19.744;2023-09-12T08:57:08;97936.53;;;22.57;73.05
50302;BME280;36550;50.472;19.744;2023-09-12T08:59:55;97937.74;;;22.60;72.53
50302;BME280;36550;50.472;19.744;2023-09-12T09:02:43;97934.23;;;22.63;71.86
50302;BME280;36550;50.472;19.744;2023-09-12T09:05:28;97935.52;;;22.66;71.58
50302;BME280;36550;50.472;19.744;2023-09-12T09:08:12;97935.23;;;22.70;71.56
50302;BME280;36550;50.472;19.744;2023-09-12T09:10:58;97930.76;;;22.77;71.40
50302;BME280;36550;50.472;19.744;2023-09-12T09:13:43;97930.77;;;22.80;70.97
50302;BME280;36550;50.472;19.744;2023-09-12T09:16:27;97929.38;;;22.83;70.71
50302;BME280;36550;50.472;19.744;2023-09-12T09:19:12;97928.89;;;22.88;70.36
50302;BME280;36550;50.472;19.744;2023-09-12T09:22:04;97924.64;;;22.93;69.52
50302;BME280;36550;50.472;19.744;2023-09-12T09:24:49;97926.16;;;23.00;69.28
50302;BME280;36550;50.472;19.744;2023-09-12T09:27:35;97920.83;;;23.07;69.06
50302;BME280;36550;50.472;19.744;2023-09-12T09:30:39;97922.63;;;23.14;68.64
50302;BME280;36550;50.472;19.744;2023-09-12T09:33:23;97922.02;;;23.23;68.40
50302;BME280;36550;50.472;19.744;2023-09-12T09:36:08;97925.40;;;23.29;67.98
50302;BME280;36550;50.472;19.744;2023-09-12T09:38:52;97921.98;;;23.33;67.61
50302;BME280;36550;50.472;19.744;2023-09-12T09:41:37;97916.15;;;23.36;67.51
50302;BME280;36550;50.472;19.744;2023-09-12T09:44:24;97920.30;;;23.39;67.31
50302;BME280;36550;50.472;19.744;2023-09-12T09:47:10;97915.23;;;23.40;67.01
50302;BME280;36550;50.472;19.744;2023-09-12T09:49:57;97917.29;;;23.42;66.74
50302;BME280;36550;50.472;19.744;2023-09-12T09:52:42;97913.36;;;23.45;66.61
50302;BME280;36550;50.472;19.744;2023-09-12T09:55:27;97913.20;;;23.47;66.29
50302;BME280;36550;50.472;19.744;2023-09-12T09:58:15;97910.05;;;23.49;65.97
50302;BME280;36550;50.472;19.744;2023-09-12T10:01:05;97913.66;;;23.51;65.61
50302;BME280;36550;50.472;19.744;2023-09-12T10:03:50;97912.77;;;23.53;65.42
50302;BME280;36550;50.472;19.744;2023-09-12T10:06:38;97911.10;;;23.55;65.10
50302;BME280;36550;50.472;19.744;2023-09-12T10:09:26;97910.36;;;23.58;64.78
50302;BME280;36550;50.472;19.744;2023-09-12T10:12:10;97909.81;;;23.60;64.31
50302;BME280;36550;50.472;19.744;2023-09-12T10:14:55;97912.27;;;23.61;64.09
50302;BME280;36550;50.472;19.744;2023-09-12T10:17:42;97911.77;;;23.65;63.75
50302;BME280;36550;50.472;19.744;2023-09-12T10:20:35;97909.91;;;23.74;63.59
50302;BME280;36550;50.472;19.744;2023-09-12T10:23:37;97911.65;;;23.83;63.35
50302;BME280;36550;50.472;19.744;2023-09-12T10:26:25;97907.92;;;23.89;63.01
50302;BME280;36550;50.472;19.744;2023-09-12T10:29:13;97902.31;;;23.99;62.67
50302;BME280;36550;50.472;19.744;2023-09-12T10:31:58;97901.33;;;24.06;62.33
50302;BME280;36550;50.472;19.744;2023-09-12T10:34:44;97906.30;;;24.12;62.18
50302;BME280;36550;50.472;19.744;2023-09-12T10:37:29;97905.41;;;24.16;62.00
50302;BME280;36550;50.472;19.744;2023-09-12T10:40:17;97901.56;;;24.26;61.75
50302;BME280;36550;50.472;19.744;2023-09-12T10:43:02;97902.67;;;24.35;61.68
50302;BME280;36550;50.472;19.744;2023-09-12T10:45:49;97906.52;;;24.43;61.35
50302;BME280;36550;50.472;19.744;2023-09-12T10:48:36;97897.82;;;24.46;61.02
50302;BME280;36550;50.472;19.744;2023-09-12T10:51:20;97900.95;;;24.48;60.82
50302;BME280;36550;50.472;19.744;2023-09-12T10:54:05;97895.02;;;24.50;60.43
50302;BME280;36550;50.472;19.744;2023-09-12T10:57:08;97897.14;;;24.52;60.26
50302;BME280;36550;50.472;19.744;2023-09-12T11:02:48;97891.90;;;24.62;59.95
50302;BME280;36550;50.472;19.744;2023-09-12T11:08:17;97890.66;;;24.77;59.61
50302;BME280;36550;50.472;19.744;2023-09-12T11:11:17;97891.08;;;24.85;59.36
50302;BME280;36550;50.472;19.744;2023-09-12T11:14:04;97892.48;;;24.94;59.20
50302;BME280;36550;50.472;19.744;2023-09-12T11:19:52;97899.48;;;25.00;58.62
50302;BME280;36550;50.472;19.744;2023-09-12T11:25:26;97894.54;;;24.99;57.24
50302;BME280;36550;50.472;19.744;2023-09-12T11:28:10;97895.51;;;24.97;57.39
50302;BME280;36550;50.472;19.744;2023-09-12T11:30:58;97894.02;;;24.97;57.29
50302;BME280;36550;50.472;19.744;2023-09-12T11:33:42;97893.89;;;24.95;57.38
50302;BME280;36550;50.472;19.744;2023-09-12T11:36:26;97891.30;;;24.93;57.56
50302;BME280;36550;50.472;19.744;2023-09-12T11:39:24;97889.61;;;24.93;57.46
50302;BME280;36550;50.472;19.744;2023-09-12T11:42:11;97886.49;;;24.99;57.25
50302;BME280;36550;50.472;19.744;2023-09-12T11:44:57;97882.24;;;25.03;57.00
50302;BME280;36550;50.472;19.744;2023-09-12T11:47:42;97880.65;;;25.03;57.03
50302;BME280;36550;50.472;19.744;2023-09-12T11:50:34;97878.94;;;25.05;57.08
50302;BME280;36550;50.472;19.744;2023-09-12T11:53:24;97874.20;;;25.07;57.02
50302;BME280;36550;50.472;19.744;2023-09-12T11:56:09;97868.46;;;25.12;56.59
50302;BME280;36550;50.472;19.744;2023-09-12T11:58:54;97867.70;;;25.18;55.87
50302;BME280;36550;50.472;19.744;2023-09-12T12:01:39;97866.06;;;25.25;56.34
50302;BME280;36550;50.472;19.744;2023-09-12T12:04:24;97861.39;;;25.28;56.31
50302;BME280;36550;50.472;19.744;2023-09-12T12:07:10;97857.05;;;25.31;56.07
50302;BME280;36550;50.472;19.744;2023-09-12T12:09:55;97862.46;;;25.38;55.85
50302;BME280;36550;50.472;19.744;2023-09-12T12:12:39;97859.27;;;25.46;56.09
50302;BME280;36550;50.472;19.744;2023-09-12T12:15:24;97861.14;;;25.52;55.75
50302;BME280;36550;50.472;19.744;2023-09-12T12:18:09;97857.71;;;25.60;55.81
50302;BME280;36550;50.472;19.744;2023-09-12T12:20:54;97853.73;;;25.65;55.58
50302;BME280;36550;50.472;19.744;2023-09-12T12:23:38;97856.95;;;25.70;55.40
50302;BME280;36550;50.472;19.744;2023-09-12T12:26:24;97854.09;;;25.78;54.93
50302;BME280;36550;50.472;19.744;2023-09-12T12:29:09;97854.35;;;25.84;54.76
50302;BME280;36550;50.472;19.744;2023-09-12T12:31:59;97851.21;;;25.87;54.54
50302;BME280;36550;50.472;19.744;2023-09-12T12:34:48;97849.58;;;25.91;53.49
50302;BME280;36550;50.472;19.744;2023-09-12T12:37:32;97844.10;;;25.95;53.14
50302;BME280;36550;50.472;19.744;2023-09-12T12:40:17;97842.41;;;25.98;53.43
50302;BME280;36550;50.472;19.744;2023-09-12T12:43:01;97844.91;;;25.99;53.48
50302;BME280;36550;50.472;19.744;2023-09-12T12:45:52;97849.75;;;26.02;53.36
50302;BME280;36550;50.472;19.744;2023-09-12T12:48:38;97849.85;;;26.05;52.40
50302;BME280;36550;50.472;19.744;2023-09-12T12:51:23;97845.34;;;26.09;52.70
50302;BME280;36550;50.472;19.744;2023-09-12T12:54:07;97844.62;;;26.13;53.28
50302;BME280;36550;50.472;19.744;2023-09-12T12:56:52;97845.41;;;26.14;52.72
50302;BME280;36550;50.472;19.744;2023-09-12T12:59:37;97846.47;;;26.13;53.10
50302;BME280;36550;50.472;19.744;2023-09-12T13:02:21;97848.65;;;26.11;53.35
50302;BME280;36550;50.472;19.744;2023-09-12T13:05:27;97845.11;;;26.09;53.48
50302;BME280;36550;50.472;19.744;2023-09-12T13:08:11;97845.50;;;26.06;53.17
50302;BME280;36550;50.472;19.744;2023-09-12T13:10:55;97843.65;;;26.03;53.85
50302;BME280;36550;50.472;19.744;2023-09-12T13:13:41;97846.02;;;26.00;54.09
50302;BME280;36550;50.472;19.744;2023-09-12T13:16:25;97845.89;;;25.98;53.75
50302;BME280;36550;50.472;19.744;2023-09-12T13:19:10;97845.79;;;25.98;53.90
50302;BME280;36550;50.472;19.744;2023-09-12T13:21:57;97846.06;;;25.96;53.72
50302;BME280;36550;50.472;19.744;2023-09-12T13:24:41;97847.87;;;25.95;53.82
50302;BME280;36550;50.472;19.744;2023-09-12T13:27:26;97848.98;;;25.93;53.55
50302;BME280;36550;50.472;19.744;2023-09-12T13:30:10;97849.50;;;25.91;53.27
50302;BME280;36550;50.472;19.744;2023-09-12T13:32:54;97847.16;;;25.87;53.20
50302;BME280;36550;50.472;19.744;2023-09-12T13:35:39;97848.61;;;25.82;53.41
50302;BME280;36550;50.472;19.744;2023-09-12T13:38:24;97844.86;;;25.77;53.45
50302;BME280;36550;50.472;19.744;2023-09-12T13:41:08;97842.89;;;25.72;53.67
50302;BME280;36550;50.472;19.744;2023-09-12T13:43:53;97843.20;;;25.65;53.79
50302;BME280;36550;50.472;19.744;2023-09-12T13:46:37;97843.45;;;25.59;53.37
50302;BME280;36550;50.472;19.744;2023-09-12T13:49:21;97840.20;;;25.52;53.58
50302;BME280;36550;50.472;19.744;2023-09-12T13:52:05;97840.04;;;25.47;53.35
50302;BME280;36550;50.472;19.744;2023-09-12T13:54:49;97847.10;;;25.43;53.57
50302;BME280;36550;50.472;19.744;2023-09-12T13:57:33;97846.58;;;25.38;53.73
50302;BME280;36550;50.472;19.744;2023-09-12T14:00:17;97849.27;;;25.33;53.97
50302;BME280;36550;50.472;19.744;2023-09-12T14:03:02;97843.61;;;25.29;54.04
50302;BME280;36550;50.472;19.744;2023-09-12T14:05:46;97841.94;;;25.27;54.32
50302;BME280;36550;50.472;19.744;2023-09-12T14:08:30;97840.27;;;25.25;54.63
50302;BME280;36550;50.472;19.744;2023-09-12T14:11:14;97840.81;;;25.25;54.74
50302;BME280;36550;50.472;19.744;2023-09-12T14:13:58;97839.50;;;25.25;54.01
50302;BME280;36550;50.472;19.744;2023-09-12T14:16:43;97839.00;;;25.26;54.42
50302;BME280;36550;50.472;19.744;2023-09-12T14:19:27;97839.72;;;25.27;54.64
50302;BME280;36550;50.472;19.744;2023-09-12T14:22:11;97835.90;;;25.27;54.84
50302;BME280;36550;50.472;19.744;2023-09-12T14:24:55;97838.52;;;25.28;55.07
50302;BME280;36550;50.472;19.744;2023-09-12T14:27:43;97839.25;;;25.27;55.21
50302;BME280;36550;50.472;19.744;2023-09-12T14:30:27;97832.99;;;25.26;55.41
50302;BME280;36550;50.472;19.744;2023-09-12T14:33:18;97836.20;;;25.25;55.60
50302;BME280;36550;50.472;19.744;2023-09-12T14:36:03;97838.36;;;25.24;55.40
50302;BME280;36550;50.472;19.744;2023-09-12T14:38:48;97837.98;;;25.22;55.34